Pineville, MO (64856)

4:11 PM CST on December 27, 2014 (GMT -0600)
Loch Lomond | Change Station
CLOSE
Current Station
Personal Weather Station
Location: Bella Vista, AR
Elevation: 1243 ft
Nearby Weather Stations
Active Advisory: Special Statement

Elev 1243 ft 36.48 °N, 94.33 °W | Updated 10 minutes ago

Overcast
Overcast
31.6 °F
Feels Like 32 °F
N
0.0
Wind Variable Wind from East
Gusts 0.0 mph

Today
High -- | Low -- °F
--% Chance of Precip.
Yesterday
High -- | Low -- °F
Precip. -- in
7:28 AM 5:08 PM
Waxing Crescent, 40% visible
Pressure 30.21 in
Visibility 10.0 miles
Clouds Mostly Cloudy 600 ft
Overcast 1300 ft
Windchill 32 °F
Dew Point 30 °F
Humidity 92%
Rainfall 0.23 in
Snow Depth Not available.
UV 0 out of 12
Pollen 2.80 out of 12
Air Quality Not available.
Flu Activity Not available.
METAR KVBT 272155Z AUTO 34009KT 10SM BKN006 OVC013 00/M02 A3021 RMK AO1 P0003

More Conditions Fewer Conditions

Pressure 30.21 in
Visibility 10.0 miles
Clouds Mostly Cloudy 600 ft
Overcast 1300 ft
Windchill 32 °F
Dew Point 30 °F
Humidity 92%
Rainfall 0.23 in
Snow Depth Not available.
UV 0 out of 12
Pollen 2.80 out of 12
Air Quality Not available.
Flu Activity Not available.
METAR KVBT 272155Z AUTO 34009KT 10SM BKN006 OVC013 00/M02 A3021 RMK AO1 P0003

More Conditions Fewer Conditions

10-Day Weather Forecast

Almanac

Astronomy

Dec. 27, 2014 Rise Set
Actual Time
Civil Twilight
Nautical Twilight
Astronomical Twilight
Moon
Length of Visible Light
Length of Day
Tomorrow will be .
, % of the Moon is Illuminated

Today's Extremes

State Highs State Lows

Community

WunderPhotos

Upload Photos

1,781,090 photos uploaded!

WunderBlogs® & News

Nearby

Air Quality

  Air Quality AQ Index Pollutant
Not available.

Snow Depth

Station Depth Elevation

Earthquake Activity

City Distance Mag. Time & Date
Minimum magnitude displayed is 2.5.

Coastal Water Temperatures

Place Temperature

Nearby Weather Stations